Catalonia — 9HWS7 — position and weather

sailwx.info

Track history (hours):
 
Tides and Currents Weather Stations Pressure Air Temp Water Temp Dewpoint Dewpoint Depression Visibility Wind Speed Wind Dir Waves Ship Positions

Catalonia

Last reported at 2015-Apr-01 00:31 UTC. Time now 2015-Apr-01 07:59 UTC.
Position N 34°45' E 119°28'.

Length 189 m; draft 10.5 m.

Type: Cargo ship. MMSI: 215929000.

Date/timePositionNaut miles runAvg speedWind from/ knotsBaromVisibWave heightAir tempDewpointWater temp
2015-Apr-01 00:31N 34°45' E 119°28'0 0.0
2015-Mar-31 23:32N 34°45' E 119°28'0 0.0
2015-Mar-31 22:31N 34°45' E 119°28'0 0.0
2015-Mar-31 21:31N 34°45' E 119°28'0 0.0
2015-Mar-31 20:31N 34°45' E 119°28'0 0.0
2015-Mar-31 19:31N 34°45' E 119°28'0 0.0
2015-Mar-31 18:31N 34°45' E 119°28'0 0.0
2015-Mar-31 17:32N 34°45' E 119°28'0 0.0
2015-Mar-31 16:31N 34°45' E 119°28'0 0.0
2015-Mar-31 15:32N 34°45' E 119°28'0 0.0
2015-Mar-31 10:32N 34°45' E 119°28'0 0.0
2015-Mar-31 09:32N 34°45' E 119°28'0 0.0
2015-Mar-31 08:31N 34°45' E 119°28'0 0.0
2015-Mar-31 07:31N 34°45' E 119°28'0 0.0
2015-Mar-31 06:33N 34°45' E 119°28'0 0.0
2015-Mar-31 05:28N 34°45' E 119°28'0 0.0
2015-Mar-31 04:28N 34°45' E 119°28'0 0.0
2015-Mar-31 03:28N 34°45' E 119°28'0 0.0
2015-Mar-31 02:22N 34°45' E 119°28'0 0.0
2015-Mar-31 01:28N 34°45' E 119°28'0 0.0
2015-Mar-31 00:28N 34°45' E 119°28'0 0.0
2015-Mar-30 23:28N 34°45' E 119°28'0 0.0
2015-Mar-30 22:28N 34°45' E 119°28'0 0.0
2015-Mar-30 21:28N 34°45' E 119°28'0 0.0
2015-Mar-30 20:28N 34°45' E 119°28'0 0.0
2015-Mar-30 19:22N 34°45' E 119°28'0 0.0
2015-Mar-30 18:28N 34°45' E 119°28'0 0.0
2015-Mar-30 17:28N 34°45' E 119°28'0 0.0
2015-Mar-30 16:28N 34°45' E 119°28'0 0.0
2015-Mar-30 15:28N 34°45' E 119°28'17 5.7
2015-Mar-30 12:33N 34°52' E 119°46'4 1.3
2015-Mar-30 09:29N 34°54' E 119°50'0 0.1
2015-Mar-30 08:29N 34°54' E 119°49'0 0.0
2015-Mar-30 03:29N 34°54' E 119°49'0 0.0
2015-Mar-29 20:23N 34°55' E 119°50'0 0.1
2015-Mar-29 18:05N 34°55' E 119°49'0 0.0
2015-Mar-29 16:23N 34°54' E 119°49'0 0.0
2015-Mar-29 15:23N 34°54' E 119°49'0 0.0
2015-Mar-29 14:29N 34°55' E 119°49'0 0.1
2015-Mar-29 13:29N 34°55' E 119°49'0 0.0
2015-Mar-29 12:29N 34°55' E 119°49'0 0.0
2015-Mar-29 11:17N 34°55' E 119°49'0 0.1
2015-Mar-29 10:29N 34°55' E 119°50'0 0.1
2015-Mar-29 09:29N 34°55' E 119°50'0 0.2
2015-Mar-29 08:29N 34°54' E 119°50'0 0.1
2015-Mar-29 07:29N 34°54' E 119°49'0 0.1
2015-Mar-29 06:29N 34°54' E 119°49'0 0.0
2015-Mar-29 05:30N 34°54' E 119°49'2 0.9
2015-Mar-29 03:33N 34°54' E 119°51'1010.2
2015-Mar-29 02:33N 34°56' E 120°04'1311.8
2015-Mar-29 01:25N 34°54' E 120°20'  
Track history (hours):
 
Tides and Currents Weather Stations Pressure Air Temp Water Temp Dewpoint Dewpoint Depression Visibility Wind Speed Wind Dir Waves Ship Positions

Catalonia

Last reported at 2015-Apr-01 00:31 UTC. Time now 2015-Apr-01 07:59 UTC.
Position N 34°45' E 119°28'.

Length 189 m; draft 10.5 m.

Type: Cargo ship. MMSI: 215929000.

Date/timePositionNaut miles runAvg speedWind from/ knotsBaromVisibWave heightAir tempDewpointWater temp
2015-Apr-01 00:31N 34°45' E 119°28'0 0.0
2015-Mar-31 23:32N 34°45' E 119°28'0 0.0
2015-Mar-31 22:31N 34°45' E 119°28'0 0.0
2015-Mar-31 21:31N 34°45' E 119°28'0 0.0
2015-Mar-31 20:31N 34°45' E 119°28'0 0.0
2015-Mar-31 19:31N 34°45' E 119°28'0 0.0
2015-Mar-31 18:31N 34°45' E 119°28'0 0.0
2015-Mar-31 17:32N 34°45' E 119°28'0 0.0
2015-Mar-31 16:31N 34°45' E 119°28'0 0.0
2015-Mar-31 15:32N 34°45' E 119°28'0 0.0
2015-Mar-31 10:32N 34°45' E 119°28'0 0.0
2015-Mar-31 09:32N 34°45' E 119°28'0 0.0
2015-Mar-31 08:31N 34°45' E 119°28'0 0.0
2015-Mar-31 07:31N 34°45' E 119°28'0 0.0
2015-Mar-31 06:33N 34°45' E 119°28'0 0.0
2015-Mar-31 05:28N 34°45' E 119°28'0 0.0
2015-Mar-31 04:28N 34°45' E 119°28'0 0.0
2015-Mar-31 03:28N 34°45' E 119°28'0 0.0
2015-Mar-31 02:22N 34°45' E 119°28'0 0.0
2015-Mar-31 01:28N 34°45' E 119°28'0 0.0
2015-Mar-31 00:28N 34°45' E 119°28'0 0.0
2015-Mar-30 23:28N 34°45' E 119°28'0 0.0
2015-Mar-30 22:28N 34°45' E 119°28'0 0.0
2015-Mar-30 21:28N 34°45' E 119°28'0 0.0
2015-Mar-30 20:28N 34°45' E 119°28'0 0.0
2015-Mar-30 19:22N 34°45' E 119°28'0 0.0
2015-Mar-30 18:28N 34°45' E 119°28'0 0.0
2015-Mar-30 17:28N 34°45' E 119°28'0 0.0
2015-Mar-30 16:28N 34°45' E 119°28'0 0.0
2015-Mar-30 15:28N 34°45' E 119°28'17 5.7
2015-Mar-30 12:33N 34°52' E 119°46'4 1.3
2015-Mar-30 09:29N 34°54' E 119°50'0 0.1
2015-Mar-30 08:29N 34°54' E 119°49'0 0.0
2015-Mar-30 03:29N 34°54' E 119°49'0 0.0
2015-Mar-29 20:23N 34°55' E 119°50'0 0.1
2015-Mar-29 18:05N 34°55' E 119°49'0 0.0
2015-Mar-29 16:23N 34°54' E 119°49'0 0.0
2015-Mar-29 15:23N 34°54' E 119°49'0 0.0
2015-Mar-29 14:29N 34°55' E 119°49'0 0.1
2015-Mar-29 13:29N 34°55' E 119°49'0 0.0
2015-Mar-29 12:29N 34°55' E 119°49'0 0.0
2015-Mar-29 11:17N 34°55' E 119°49'0 0.1
2015-Mar-29 10:29N 34°55' E 119°50'0 0.1
2015-Mar-29 09:29N 34°55' E 119°50'0 0.2
2015-Mar-29 08:29N 34°54' E 119°50'0 0.1
2015-Mar-29 07:29N 34°54' E 119°49'0 0.1
2015-Mar-29 06:29N 34°54' E 119°49'0 0.0
2015-Mar-29 05:30N 34°54' E 119°49'2 0.9
2015-Mar-29 03:33N 34°54' E 119°51'1010.2
2015-Mar-29 02:33N 34°56' E 120°04'1311.8
2015-Mar-29 01:25N 34°54' E 120°20'  

Dump ship's entire track history